Time;durP1;ratioP1;P1;durP2;ratioP2;P2;SDS_P1;SDS_P2;PMS_P1;PMS_P2;Temp;Humidity;BMP_temperature;BMP_pressure;BME280_temperature;BME280_humidity;BME280_pressure;Samples;Min_cycle;Max_cycle;Signal;HPM_P1;HPM_P2
2023/09/22 00:02:07;;;;;;;7.13;4.50;;;19.20;99.90;;;;;;5218711;28;20483;-49
2023/09/22 00:04:39;;;;;;;4.37;3.93;;;19.20;99.90;;;;;;5215373;28;20640;-49
2023/09/22 00:07:10;;;;;;;10.20;4.40;;;19.20;99.90;;;;;;5210546;28;20535;-49
2023/09/22 00:09:41;;;;;;;5.30;3.87;;;19.20;99.90;;;;;;5216762;28;20534;-48
2023/09/22 00:12:12;;;;;;;4.50;4.20;;;19.20;99.90;;;;;;5219670;28;20494;-49
2023/09/22 00:14:42;;;;;;;4.73;4.00;;;19.20;99.90;;;;;;5205871;28;20191;-49
2023/09/22 00:17:13;;;;;;;12.00;4.00;;;19.20;99.90;;;;;;5209302;28;20210;-48
2023/09/22 00:19:45;;;;;;;5.93;4.23;;;19.20;99.90;;;;;;5214895;28;20244;-49
2023/09/22 00:22:16;;;;;;;4.17;3.73;;;19.30;99.90;;;;;;5214016;28;20210;-48
2023/09/22 00:24:48;;;;;;;5.43;3.63;;;19.30;99.90;;;;;;5209797;28;20437;-49
2023/09/22 00:27:19;;;;;;;10.43;4.13;;;19.30;99.90;;;;;;5207350;28;20611;-49
2023/09/22 00:29:50;;;;;;;4.80;4.37;;;19.40;99.90;;;;;;5199600;28;20483;-49
2023/09/22 00:32:21;;;;;;;6.73;4.10;;;19.40;99.90;;;;;;5210154;28;20201;-47
2023/09/22 00:34:52;;;;;;;7.37;4.80;;;19.50;99.90;;;;;;5214899;28;20258;-48
2023/09/22 00:37:23;;;;;;;6.70;3.97;;;19.60;99.90;;;;;;5212803;28;20184;-48
2023/09/22 00:39:54;;;;;;;4.03;3.63;;;19.50;99.90;;;;;;5206408;28;20659;-49
2023/09/22 00:42:24;;;;;;;4.60;4.20;;;19.40;99.90;;;;;;5213714;28;20553;-48
2023/09/22 00:44:55;;;;;;;5.40;4.23;;;19.60;99.90;;;;;;5210349;28;20179;-48
2023/09/22 00:47:26;;;;;;;8.43;4.87;;;19.50;99.90;;;;;;5205911;28;20188;-49
2023/09/22 00:49:57;;;;;;;7.47;4.43;;;19.40;99.90;;;;;;5210332;28;20179;-48
2023/09/22 00:52:29;;;;;;;14.23;4.23;;;19.40;99.90;;;;;;5212602;28;20819;-48
2023/09/22 00:55:00;;;;;;;7.30;4.23;;;19.40;99.90;;;;;;5212035;28;20176;-49
2023/09/22 00:57:30;;;;;;;4.07;3.87;;;19.30;99.90;;;;;;5210250;28;20450;-49
2023/09/22 01:00:03;;;;;;;6.80;4.30;;;19.20;99.90;;;;;;5214850;28;20189;-50
2023/09/22 01:02:36;;;;;;;4.30;4.00;;;19.40;99.90;;;;;;5207858;28;20207;-49
2023/09/22 01:05:08;;;;;;;6.53;4.37;;;19.40;99.90;;;;;;5205822;28;20541;-48
2023/09/22 01:07:39;;;;;;;9.07;5.00;;;19.40;99.90;;;;;;5210215;28;20430;-48
2023/09/22 01:10:10;;;;;;;7.87;5.20;;;19.40;99.90;;;;;;5208021;28;20480;-48
2023/09/22 01:12:41;;;;;;;6.53;5.23;;;19.40;99.90;;;;;;5211247;28;20282;-48
2023/09/22 01:15:11;;;;;;;7.30;5.17;;;19.50;99.90;;;;;;5209577;28;20557;-49
2023/09/22 01:17:43;;;;;;;8.10;5.60;;;19.40;99.90;;;;;;5208328;28;20659;-48
2023/09/22 01:20:13;;;;;;;9.20;5.17;;;19.40;99.90;;;;;;5206530;28;20226;-48
2023/09/22 01:22:44;;;;;;;5.23;4.60;;;19.30;99.90;;;;;;5207755;28;20840;-47
2023/09/22 01:25:15;;;;;;;7.37;4.93;;;19.30;99.90;;;;;;5206758;28;20275;-48
2023/09/22 01:27:46;;;;;;;21.93;6.80;;;19.30;99.90;;;;;;5215021;28;20295;-49
2023/09/22 01:30:17;;;;;;;8.50;5.73;;;19.30;99.90;;;;;;5208556;28;20207;-48
2023/09/22 01:32:48;;;;;;;7.97;5.60;;;19.10;99.90;;;;;;5215547;28;20488;-48
2023/09/22 01:35:18;;;;;;;7.67;5.73;;;19.20;99.90;;;;;;5214127;28;20211;-49
2023/09/22 01:37:59;;;;;;;6.87;4.93;;;19.20;99.90;;;;;;5195186;28;20206;-48
2023/09/22 01:40:30;;;;;;;5.47;5.10;;;19.00;99.90;;;;;;5206038;28;20246;-49
2023/09/22 01:43:00;;;;;;;8.83;6.40;;;19.20;99.90;;;;;;5214696;28;20858;-47
2023/09/22 01:45:31;;;;;;;7.33;5.50;;;19.10;99.90;;;;;;5220342;28;20559;-48
2023/09/22 01:48:02;;;;;;;7.23;5.83;;;19.00;99.90;;;;;;5209984;28;20250;-47
2023/09/22 01:50:38;;;;;;;4.77;4.30;;;18.90;99.90;;;;;;5220082;28;20640;-47
2023/09/22 01:53:10;;;;;;;5.97;5.37;;;18.90;99.90;;;;;;5210489;28;20975;-48
2023/09/22 01:55:42;;;;;;;6.33;5.40;;;18.80;99.90;;;;;;5210060;28;20457;-48
2023/09/22 01:58:12;;;;;;;9.13;5.97;;;18.90;99.90;;;;;;5212447;28;20446;-47
2023/09/22 02:00:43;;;;;;;5.53;5.13;;;18.90;99.90;;;;;;5212689;28;20922;-48
2023/09/22 02:03:14;;;;;;;6.53;5.93;;;18.90;99.90;;;;;;5213343;28;20662;-48
2023/09/22 02:05:45;;;;;;;5.80;5.03;;;19.00;99.90;;;;;;5215951;28;20208;-48
2023/09/22 02:08:16;;;;;;;6.03;5.50;;;18.90;99.90;;;;;;5218354;28;20442;-47
2023/09/22 02:10:48;;;;;;;16.63;5.67;;;18.90;99.90;;;;;;5219756;28;20437;-48
2023/09/22 02:13:18;;;;;;;5.30;4.90;;;18.90;99.90;;;;;;5225069;28;20658;-48
2023/09/22 02:15:51;;;;;;;8.87;6.13;;;18.90;99.90;;;;;;5214130;28;20483;-48
2023/09/22 02:18:23;;;;;;;10.67;6.43;;;19.00;99.90;;;;;;5212433;28;20195;-48
2023/09/22 02:20:54;;;;;;;8.60;6.00;;;18.80;99.90;;;;;;5218365;28;20886;-48
2023/09/22 02:23:26;;;;;;;6.07;5.13;;;18.80;99.90;;;;;;5229934;28;20457;-49
2023/09/22 02:26:06;;;;;;;6.23;5.63;;;18.80;99.90;;;;;;5217729;28;20619;-48
2023/09/22 02:28:37;;;;;;;14.40;6.47;;;18.80;99.90;;;;;;5214554;28;20519;-48
2023/09/22 02:31:08;;;;;;;7.13;5.30;;;18.80;99.90;;;;;;5215780;28;20942;-49
2023/09/22 02:33:39;;;;;;;6.37;5.87;;;18.80;99.90;;;;;;5213299;28;20476;-47
2023/09/22 02:36:10;;;;;;;8.73;5.90;;;18.80;99.90;;;;;;5216939;28;20471;-48
2023/09/22 02:38:40;;;;;;;8.73;5.67;;;18.80;99.90;;;;;;5212996;28;20450;-49
2023/09/22 02:41:14;;;;;;;7.83;5.83;;;18.80;99.90;;;;;;5218407;28;20196;-49
2023/09/22 02:43:44;;;;;;;5.93;4.97;;;18.90;99.90;;;;;;5213695;28;20210;-48
2023/09/22 02:46:15;;;;;;;7.13;5.50;;;19.00;99.90;;;;;;5213368;28;20954;-49
2023/09/22 02:48:47;;;;;;;6.53;5.93;;;18.90;99.90;;;;;;5213016;28;20637;-48
2023/09/22 02:51:17;;;;;;;7.10;5.70;;;18.90;99.90;;;;;;5210396;28;20206;-48
2023/09/22 02:53:50;;;;;;;6.03;5.63;;;18.90;99.90;;;;;;5211405;28;20922;-49
2023/09/22 02:56:21;;;;;;;6.93;5.93;;;19.00;99.90;;;;;;5211541;28;20676;-48
2023/09/22 02:58:51;;;;;;;9.53;5.73;;;19.00;99.90;;;;;;5216090;28;20493;-49
2023/09/22 03:01:24;;;;;;;9.83;5.77;;;19.00;99.90;;;;;;5211615;28;20564;-49
2023/09/22 03:03:54;;;;;;;9.60;6.17;;;19.00;99.90;;;;;;5218134;28;20667;-49
2023/09/22 03:06:25;;;;;;;6.23;5.73;;;19.10;99.90;;;;;;5212393;28;20461;-49
2023/09/22 03:08:56;;;;;;;6.63;6.03;;;19.10;99.90;;;;;;5210366;28;20188;-48
2023/09/22 03:11:27;;;;;;;5.57;5.10;;;19.10;99.90;;;;;;5202619;28;20191;-48
2023/09/22 03:13:58;;;;;;;5.90;4.40;;;19.10;99.90;;;;;;5213045;28;20528;-48
2023/09/22 03:16:30;;;;;;;5.93;5.00;;;19.10;99.90;;;;;;5212706;28;20230;-48
2023/09/22 03:19:00;;;;;;;5.73;5.07;;;19.00;99.90;;;;;;5207823;28;20426;-48
2023/09/22 03:21:31;;;;;;;5.33;4.83;;;19.00;99.90;;;;;;5206432;28;20434;-49
2023/09/22 03:24:02;;;;;;;5.23;4.63;;;19.00;99.90;;;;;;5210381;28;20260;-48
2023/09/22 03:26:33;;;;;;;5.07;4.67;;;19.10;99.90;;;;;;5218238;28;20207;-48
2023/09/22 03:29:04;;;;;;;8.50;5.20;;;19.10;99.90;;;;;;5222545;28;20187;-48
2023/09/22 03:31:36;;;;;;;5.33;4.83;;;19.10;99.90;;;;;;5208026;28;20310;-50
2023/09/22 03:34:07;;;;;;;4.10;3.80;;;19.10;99.90;;;;;;5211477;28;20446;-49
2023/09/22 03:36:39;;;;;;;5.07;4.57;;;19.10;99.90;;;;;;5217819;28;20450;-49
2023/09/22 03:39:12;;;;;;;6.23;3.67;;;19.20;99.90;;;;;;5220101;28;20682;-49
2023/09/22 03:41:44;;;;;;;5.00;3.27;;;19.20;99.90;;;;;;5212882;28;21020;-49
2023/09/22 03:44:16;;;;;;;2.93;2.83;;;19.10;99.90;;;;;;5217854;28;20988;-49
2023/09/22 03:46:47;;;;;;;2.00;1.87;;;19.00;99.90;;;;;;5210085;28;20446;-49
2023/09/22 03:49:17;;;;;;;1.43;1.33;;;19.00;99.90;;;;;;5217183;28;20937;-49
2023/09/22 03:51:49;;;;;;;1.43;1.23;;;18.90;99.90;;;;;;5218660;28;20624;-49
2023/09/22 03:54:19;;;;;;;1.00;1.00;;;18.70;99.90;;;;;;5206313;28;20187;-49
2023/09/22 03:56:50;;;;;;;1.07;1.07;;;18.60;99.90;;;;;;5216787;28;20600;-50
2023/09/22 03:59:22;;;;;;;1.40;1.40;;;18.40;99.90;;;;;;5211778;28;20328;-49
2023/09/22 04:01:52;;;;;;;1.53;1.43;;;18.30;99.90;;;;;;5214129;28;20448;-49
2023/09/22 04:04:23;;;;;;;1.53;1.40;;;18.20;99.90;;;;;;5211973;28;20965;-49
2023/09/22 04:06:54;;;;;;;1.33;1.33;;;18.10;99.90;;;;;;5211656;28;20192;-49
2023/09/22 04:09:25;;;;;;;2.77;1.43;;;18.00;99.90;;;;;;5210569;28;20211;-48
2023/09/22 04:11:56;;;;;;;1.73;1.73;;;18.00;99.90;;;;;;5206342;28;20171;-50
2023/09/22 04:14:27;;;;;;;1.57;1.43;;;17.90;99.90;;;;;;5207753;28;20456;-49
2023/09/22 04:16:58;;;;;;;1.10;1.10;;;17.80;99.90;;;;;;5215125;28;20288;-50
2023/09/22 04:19:33;;;;;;;1.47;1.40;;;17.70;99.90;;;;;;5211961;28;20191;-49
2023/09/22 04:22:06;;;;;;;1.75;1.60;;;17.60;99.90;;;;;;5208952;28;20428;-50
2023/09/22 04:24:38;;;;;;;1.70;1.70;;;17.50;99.90;;;;;;5193898;28;20842;-49
2023/09/22 04:27:09;;;;;;;1.93;1.80;;;17.40;99.90;;;;;;5208494;28;21023;-51
2023/09/22 04:29:40;;;;;;;2.03;1.93;;;17.40;99.90;;;;;;5208320;28;20434;-50
2023/09/22 04:32:11;;;;;;;1.80;1.60;;;17.30;99.90;;;;;;5210163;28;20539;-49
2023/09/22 04:34:43;;;;;;;1.83;1.60;;;17.30;99.90;;;;;;5213334;28;20572;-50
2023/09/22 04:37:15;;;;;;;13.90;2.60;;;17.20;99.90;;;;;;5206697;28;20238;-51
2023/09/22 04:39:45;;;;;;;8.70;2.27;;;17.10;99.90;;;;;;5210704;28;20525;-50
2023/09/22 04:42:16;;;;;;;2.10;2.00;;;17.10;99.90;;;;;;5211669;28;20572;-52
2023/09/22 04:44:49;;;;;;;4.80;2.30;;;17.00;99.90;;;;;;5207193;28;20176;-51
2023/09/22 04:47:19;;;;;;;4.20;1.93;;;16.90;99.90;;;;;;5209116;28;20640;-51
2023/09/22 04:49:50;;;;;;;2.30;2.20;;;16.90;99.90;;;;;;5211727;28;20425;-50
2023/09/22 04:52:21;;;;;;;1.67;1.57;;;16.80;99.90;;;;;;5212681;28;20179;-50
2023/09/22 04:54:52;;;;;;;2.10;2.00;;;16.80;99.90;;;;;;5206947;28;20550;-51
2023/09/22 04:57:22;;;;;;;2.60;2.30;;;16.70;99.90;;;;;;5209530;28;20199;-50
2023/09/22 04:59:54;;;;;;;2.00;1.90;;;16.60;99.90;;;;;;5208038;28;20167;-50
2023/09/22 05:02:25;;;;;;;3.23;1.87;;;16.50;99.90;;;;;;5211277;28;20462;-47
2023/09/22 05:04:56;;;;;;;2.33;2.23;;;16.40;99.90;;;;;;5208050;28;20421;-48
2023/09/22 05:07:28;;;;;;;3.17;2.87;;;16.40;99.90;;;;;;5216605;28;20524;-48
2023/09/22 05:09:59;;;;;;;5.43;1.97;;;16.40;99.90;;;;;;5216128;28;20727;-47
2023/09/22 05:12:32;;;;;;;2.10;2.00;;;16.50;99.90;;;;;;5199558;28;23690;-47
2023/09/22 05:15:04;;;;;;;2.07;1.97;;;16.50;99.90;;;;;;5216736;28;20950;-47
2023/09/22 05:17:35;;;;;;;2.07;1.97;;;16.60;99.90;;;;;;5223208;28;20469;-49
2023/09/22 05:20:12;;;;;;;2.07;1.93;;;16.80;99.90;;;;;;5217016;28;20472;-52
2023/09/22 05:22:42;;;;;;;2.03;1.83;;;16.70;99.90;;;;;;5219066;28;20210;-47
2023/09/22 05:25:15;;;;;;;3.43;2.10;;;16.70;99.90;;;;;;5217567;28;20457;-48
2023/09/22 05:27:46;;;;;;;2.60;2.40;;;16.70;99.90;;;;;;5218938;28;20184;-47
2023/09/22 05:30:16;;;;;;;3.30;2.37;;;16.70;99.90;;;;;;5215122;28;20491;-48
2023/09/22 05:32:47;;;;;;;4.57;2.80;;;16.60;99.90;;;;;;5215387;28;20186;-48
2023/09/22 05:35:18;;;;;;;1.80;1.63;;;16.60;99.90;;;;;;5219530;28;20273;-47
2023/09/22 05:37:52;;;;;;;4.07;2.93;;;16.60;99.90;;;;;;5210856;28;20278;-48
2023/09/22 05:40:22;;;;;;;6.47;2.80;;;16.70;99.90;;;;;;5216589;28;20263;-47
2023/09/22 05:42:54;;;;;;;6.77;2.47;;;16.70;99.90;;;;;;5218122;28;20536;-49
2023/09/22 05:45:25;;;;;;;2.40;2.30;;;16.70;99.90;;;;;;5219762;28;20294;-49
2023/09/22 05:47:56;;;;;;;2.60;2.50;;;16.70;99.90;;;;;;5217828;28;20771;-48
2023/09/22 05:50:27;;;;;;;1.60;1.50;;;16.70;99.90;;;;;;5215646;28;20435;-47
2023/09/22 05:52:58;;;;;;;1.93;1.80;;;16.70;99.90;;;;;;5212918;28;20195;-50
2023/09/22 05:55:30;;;;;;;3.43;2.07;;;16.80;99.90;;;;;;5217147;28;20488;-47
2023/09/22 05:58:01;;;;;;;2.53;2.43;;;16.80;99.90;;;;;;5214965;28;20225;-50
2023/09/22 06:00:34;;;;;;;2.50;2.40;;;16.70;99.90;;;;;;5218162;28;20929;-46
2023/09/22 06:03:05;;;;;;;3.07;2.37;;;16.70;99.90;;;;;;5212578;28;20200;-48
2023/09/22 06:05:37;;;;;;;4.97;3.20;;;16.80;99.90;;;;;;5219629;28;20862;-47
2023/09/22 06:08:07;;;;;;;2.97;2.57;;;16.80;99.90;;;;;;5211959;28;20521;-49
2023/09/22 06:10:38;;;;;;;2.33;2.03;;;16.80;99.90;;;;;;5218209;28;20914;-51
2023/09/22 06:13:09;;;;;;;10.00;3.40;;;16.80;99.90;;;;;;5214780;28;20183;-49
2023/09/22 06:15:40;;;;;;;2.70;1.80;;;16.80;99.90;;;;;;5212801;28;20508;-47
2023/09/22 06:18:12;;;;;;;3.97;2.30;;;16.80;99.90;;;;;;5215856;28;20190;-48
2023/09/22 06:20:44;;;;;;;2.73;2.10;;;16.80;99.90;;;;;;5220807;28;20186;-47
2023/09/22 06:23:16;;;;;;;2.40;2.30;;;17.00;99.90;;;;;;5215762;28;20474;-47
2023/09/22 06:25:47;;;;;;;2.53;1.87;;;17.10;99.90;;;;;;5213604;28;20449;-49
2023/09/22 06:28:21;;;;;;;2.13;2.03;;;17.10;99.90;;;;;;5211571;28;20438;-49
2023/09/22 06:30:52;;;;;;;1.90;1.80;;;17.00;99.90;;;;;;5219785;28;20185;-50
2023/09/22 06:33:23;;;;;;;2.10;2.00;;;17.10;99.90;;;;;;5216538;28;20513;-48
2023/09/22 06:35:57;;;;;;;5.80;2.27;;;17.10;99.90;;;;;;5211588;28;20462;-49
2023/09/22 06:38:33;;;;;;;2.07;1.90;;;17.20;99.90;;;;;;5212956;28;20273;-47
2023/09/22 06:41:04;;;;;;;1.90;1.80;;;17.20;99.90;;;;;;5215412;28;20440;-48
2023/09/22 06:43:36;;;;;;;2.07;1.97;;;17.20;99.90;;;;;;5213408;28;20670;-45
2023/09/22 06:46:09;;;;;;;3.33;2.63;;;17.20;99.90;;;;;;5213346;28;20458;-48
2023/09/22 06:48:40;;;;;;;3.80;2.90;;;17.20;99.90;;;;;;5216736;28;20802;-47
2023/09/22 06:51:18;;;;;;;2.03;1.93;;;17.20;99.90;;;;;;5219877;28;20490;-47
2023/09/22 06:53:49;;;;;;;2.33;2.17;;;17.20;99.90;;;;;;5218491;28;20466;-47
2023/09/22 06:56:20;;;;;;;4.33;3.03;;;17.30;99.90;;;;;;5218936;28;20454;-46
2023/09/22 06:58:53;;;;;;;3.47;3.20;;;17.40;99.90;;;;;;5216144;28;20512;-48
2023/09/22 07:01:24;;;;;;;4.00;2.10;;;17.50;99.90;;;;;;5219957;28;20461;-47
2023/09/22 07:03:56;;;;;;;5.00;2.87;;;17.60;99.90;;;;;;5217389;28;20573;-50
2023/09/22 07:06:27;;;;;;;3.17;2.50;;;17.70;99.90;;;;;;5219645;28;20234;-47
2023/09/22 07:08:58;;;;;;;2.63;1.83;;;17.60;99.90;;;;;;5217378;28;20521;-45
2023/09/22 07:11:29;;;;;;;2.73;2.63;;;17.60;99.90;;;;;;5217298;28;20462;-48
2023/09/22 07:14:00;;;;;;;2.30;2.20;;;17.60;99.90;;;;;;5224641;28;20946;-46
2023/09/22 07:16:32;;;;;;;2.10;1.90;;;17.70;99.90;;;;;;5216966;28;20207;-47
2023/09/22 07:19:03;;;;;;;2.47;2.30;;;17.70;99.90;;;;;;5216381;28;20286;-46
2023/09/22 07:21:34;;;;;;;2.83;2.10;;;17.70;99.90;;;;;;5216551;28;21050;-48
2023/09/22 07:24:05;;;;;;;3.90;2.10;;;17.80;99.90;;;;;;5217366;28;20556;-47
2023/09/22 07:26:57;;;;;;;6.90;2.50;;;17.80;99.90;;;;;;5215648;28;20814;-48
2023/09/22 07:29:27;;;;;;;5.30;2.03;;;17.70;99.90;;;;;;5214158;28;20409;-45
2023/09/22 07:31:58;;;;;;;3.13;2.50;;;17.60;99.90;;;;;;5211584;28;20453;-46
2023/09/22 07:34:29;;;;;;;4.97;2.37;;;17.50;99.90;;;;;;5218026;28;20187;-47
2023/09/22 07:37:00;;;;;;;2.53;2.10;;;17.40;99.90;;;;;;5219182;28;20202;-47
2023/09/22 07:39:30;;;;;;;2.10;2.00;;;17.40;99.90;;;;;;5213269;28;20187;-46
2023/09/22 07:42:02;;;;;;;2.00;1.90;;;17.30;99.90;;;;;;5214249;28;20206;-48
2023/09/22 07:44:33;;;;;;;4.10;2.43;;;17.20;99.90;;;;;;5211444;28;20204;-46
2023/09/22 07:47:10;;;;;;;3.50;2.63;;;17.20;99.90;;;;;;5210836;28;20973;-47
2023/09/22 07:49:42;;;;;;;5.10;2.10;;;17.30;99.90;;;;;;5211506;28;20232;-51
2023/09/22 07:52:13;;;;;;;1.93;1.83;;;17.30;99.90;;;;;;5211286;28;20874;-47
2023/09/22 07:54:45;;;;;;;2.00;1.90;;;17.30;99.90;;;;;;5211728;28;20434;-47
2023/09/22 07:57:16;;;;;;;2.07;1.57;;;17.40;99.90;;;;;;5217142;28;20453;-47
2023/09/22 07:59:46;;;;;;;3.60;1.50;;;17.40;99.90;;;;;;5211984;28;20438;-48
2023/09/22 08:02:17;;;;;;;3.13;1.93;;;17.40;99.90;;;;;;5209820;28;20180;-47
2023/09/22 08:04:48;;;;;;;3.70;2.33;;;17.40;99.90;;;;;;5215626;28;20644;-47
2023/09/22 08:07:20;;;;;;;1.63;1.63;;;17.30;99.90;;;;;;5213126;28;20183;-47
2023/09/22 08:09:50;;;;;;;2.93;1.30;;;17.40;99.90;;;;;;5213747;28;20288;-52
2023/09/22 08:12:21;;;;;;;1.67;1.57;;;17.40;99.90;;;;;;5213061;28;20426;-47
2023/09/22 08:14:52;;;;;;;1.73;1.63;;;17.50;99.90;;;;;;5215854;28;20182;-47
2023/09/22 08:17:23;;;;;;;3.20;2.30;;;17.50;99.90;;;;;;5214948;28;20550;-47
2023/09/22 08:19:54;;;;;;;1.60;1.50;;;17.60;99.90;;;;;;5219558;28;20198;-48
2023/09/22 08:22:26;;;;;;;2.70;1.37;;;17.70;99.90;;;;;;5220946;28;20175;-48
2023/09/22 08:24:57;;;;;;;1.87;1.77;;;17.90;99.90;;;;;;5214882;28;20441;-49
2023/09/22 08:27:29;;;;;;;2.47;1.83;;;17.90;99.90;;;;;;5213207;28;20943;-48
2023/09/22 08:30:09;;;;;;;2.43;1.83;;;18.00;99.90;;;;;;5216186;28;20295;-47
2023/09/22 08:32:41;;;;;;;1.77;1.77;;;18.00;99.90;;;;;;5216801;28;20434;-51
2023/09/22 08:35:15;;;;;;;2.17;2.07;;;18.10;99.90;;;;;;5211609;28;20971;-45
2023/09/22 08:37:47;;;;;;;1.40;1.30;;;18.10;99.90;;;;;;5212969;28;20795;-46
2023/09/22 08:40:18;;;;;;;1.80;1.50;;;18.40;99.90;;;;;;5215322;28;20437;-47
2023/09/22 08:42:51;;;;;;;3.63;2.10;;;18.70;99.90;;;;;;5220035;28;20476;-49
2023/09/22 08:45:22;;;;;;;1.50;1.50;;;18.70;99.90;;;;;;5212140;28;20469;-47
2023/09/22 08:47:53;;;;;;;4.73;1.70;;;18.70;99.90;;;;;;5218253;28;20434;-47
2023/09/22 08:50:24;;;;;;;3.07;1.60;;;18.80;99.90;;;;;;5217104;28;20480;-46
2023/09/22 08:52:55;;;;;;;2.17;2.07;;;18.80;99.90;;;;;;5217175;28;20273;-46
2023/09/22 08:55:26;;;;;;;1.90;1.80;;;18.90;99.90;;;;;;5220029;28;20207;-46
2023/09/22 08:57:58;;;;;;;1.73;1.73;;;18.90;99.90;;;;;;5223324;28;20475;-46
2023/09/22 09:00:29;;;;;;;2.30;2.10;;;18.90;99.90;;;;;;5214540;28;20202;-47
2023/09/22 09:03:08;;;;;;;2.13;1.70;;;18.90;99.90;;;;;;5216960;28;20551;-48
2023/09/22 09:05:39;;;;;;;2.00;1.83;;;18.80;99.90;;;;;;5222184;28;20493;-50
2023/09/22 09:08:11;;;;;;;1.60;1.50;;;18.90;99.90;;;;;;5224885;28;20862;-46
2023/09/22 09:10:44;;;;;;;1.50;1.50;;;18.90;99.90;;;;;;5214817;28;20464;-47
2023/09/22 09:13:23;;;;;;;2.67;1.30;;;18.70;99.90;;;;;;5219369;28;20442;-46
2023/09/22 09:15:55;;;;;;;3.50;1.70;;;18.80;99.90;;;;;;5218893;28;21011;-50
2023/09/22 09:18:26;;;;;;;2.07;1.97;;;18.70;99.90;;;;;;5219382;28;20528;-51
2023/09/22 09:21:09;;;;;;;2.93;1.93;;;18.70;99.90;;;;;;5217906;28;20522;-50
2023/09/22 09:23:58;;;;;;;4.00;2.23;;;18.70;99.90;;;;;;5217831;28;20215;-50
2023/09/22 09:26:31;;;;;;;1.70;1.47;;;18.70;99.90;;;;;;5222231;28;20450;-49
2023/09/22 09:29:02;;;;;;;2.27;2.07;;;18.80;99.90;;;;;;5219981;28;20434;-49
2023/09/22 09:31:43;;;;;;;2.20;2.00;;;18.70;99.90;;;;;;5215491;28;20806;-49
2023/09/22 09:34:15;;;;;;;1.70;1.63;;;18.70;99.90;;;;;;5214092;28;20451;-49
2023/09/22 09:36:45;;;;;;;0.90;0.90;;;18.60;99.90;;;;;;5216813;28;20547;-50
2023/09/22 09:39:18;;;;;;;2.03;1.93;;;18.50;99.90;;;;;;5214267;28;20557;-50
2023/09/22 09:41:50;;;;;;;0.83;0.83;;;18.50;99.90;;;;;;5220724;28;20196;-49
2023/09/22 09:44:23;;;;;;;1.50;1.47;;;18.30;99.90;;;;;;5219352;28;20477;-48
2023/09/22 09:46:54;;;;;;;1.67;1.50;;;18.40;99.90;;;;;;5211327;28;20468;-49
2023/09/22 09:49:25;;;;;;;1.70;1.60;;;18.60;99.90;;;;;;5212726;28;20957;-49
2023/09/22 09:51:56;;;;;;;1.20;1.10;;;18.40;99.90;;;;;;5217269;28;20433;-51
2023/09/22 09:54:28;;;;;;;1.50;1.40;;;18.50;99.90;;;;;;5200114;28;20810;-49
2023/09/22 09:56:59;;;;;;;3.63;1.00;;;18.50;99.90;;;;;;5200243;28;20466;-50
2023/09/22 09:59:30;;;;;;;1.80;1.57;;;18.50;99.90;;;;;;5212998;28;20426;-50
2023/09/22 10:02:01;;;;;;;1.70;1.60;;;18.50;99.90;;;;;;5215476;28;20246;-49
2023/09/22 10:04:34;;;;;;;1.57;1.47;;;18.40;99.90;;;;;;5216883;28;20211;-49
2023/09/22 10:07:06;;;;;;;1.40;1.30;;;18.40;99.90;;;;;;5224651;28;20697;-50
2023/09/22 10:09:37;;;;;;;3.70;1.90;;;18.60;99.90;;;;;;5206047;28;20794;-49
2023/09/22 10:12:08;;;;;;;1.33;1.23;;;18.70;99.90;;;;;;5207195;28;20449;-49
2023/09/22 10:14:46;;;;;;;1.77;1.30;;;18.80;99.90;;;;;;5216677;28;20186;-50
2023/09/22 10:17:21;;;;;;;1.10;1.10;;;18.90;99.90;;;;;;5210949;28;20468;-51
2023/09/22 10:19:52;;;;;;;3.23;1.73;;;19.00;99.90;;;;;;5215709;28;20809;-51
2023/09/22 10:22:23;;;;;;;4.33;1.40;;;19.00;99.90;;;;;;5219484;28;20445;-50
2023/09/22 10:25:12;;;;;;;1.80;1.70;;;19.00;99.90;;;;;;5215085;28;20176;-49
2023/09/22 10:27:55;;;;;;;1.80;1.70;;;18.90;99.90;;;;;;5219864;28;20278;-50
2023/09/22 10:30:44;;;;;;;2.87;1.73;;;18.90;99.90;;;;;;5219808;28;20496;-49
2023/09/22 10:33:30;;;;;;;1.60;1.60;;;18.80;99.90;;;;;;5219839;28;20443;-49
2023/09/22 10:36:01;;;;;;;1.93;1.70;;;18.70;99.90;;;;;;5219128;28;20476;-48
2023/09/22 10:38:52;;;;;;;1.33;1.33;;;18.80;99.90;;;;;;5208746;28;20490;-49
2023/09/22 10:41:23;;;;;;;1.57;1.40;;;18.70;99.90;;;;;;5221928;28;20982;-47
2023/09/22 10:43:58;;;;;;;9.30;1.80;;;18.80;99.90;;;;;;5219528;28;20461;-49
2023/09/22 10:46:29;;;;;;;1.77;1.67;;;18.90;99.90;;;;;;5217961;28;20925;-49
2023/09/22 10:49:00;;;;;;;3.23;1.60;;;18.80;99.90;;;;;;5221502;28;20450;-51
2023/09/22 10:51:42;;;;;;;2.83;1.07;;;18.90;99.90;;;;;;5196668;28;20446;-48
2023/09/22 10:54:13;;;;;;;1.73;1.63;;;18.90;99.90;;;;;;5215616;28;20434;-50
2023/09/22 10:56:44;;;;;;;1.80;1.37;;;18.90;99.90;;;;;;5225324;28;20437;-48
2023/09/22 10:59:16;;;;;;;1.50;1.50;;;18.70;99.90;;;;;;5214945;28;20227;-48
2023/09/22 11:01:48;;;;;;;3.53;1.90;;;18.70;99.90;;;;;;5221110;28;20441;-47
2023/09/22 11:04:19;;;;;;;2.50;2.40;;;18.70;99.90;;;;;;5219098;28;20560;-47
2023/09/22 11:06:49;;;;;;;3.07;1.80;;;18.70;99.90;;;;;;5222009;28;20540;-47
2023/09/22 11:09:34;;;;;;;1.53;1.37;;;18.70;99.90;;;;;;5216101;28;20179;-47
2023/09/22 11:12:05;;;;;;;1.73;1.63;;;18.70;99.90;;;;;;5218708;28;20266;-51
2023/09/22 11:14:39;;;;;;;1.60;1.50;;;18.60;99.90;;;;;;5216759;28;20435;-46
2023/09/22 11:17:10;;;;;;;1.60;1.60;;;18.60;99.90;;;;;;5217796;28;20961;-47
2023/09/22 11:19:52;;;;;;;1.90;1.80;;;18.60;99.90;;;;;;5219269;28;20517;-48
2023/09/22 11:22:23;;;;;;;1.93;1.83;;;18.60;99.90;;;;;;5216744;28;20441;-47
2023/09/22 11:24:54;;;;;;;1.03;0.90;;;18.60;99.90;;;;;;5218476;28;20516;-45
2023/09/22 11:27:25;;;;;;;2.53;1.27;;;18.70;99.90;;;;;;5214463;28;20670;-47
2023/09/22 11:30:16;;;;;;;3.50;1.40;;;18.70;99.90;;;;;;5221486;28;20183;-48
2023/09/22 11:32:47;;;;;;;2.30;1.60;;;18.60;99.90;;;;;;5216360;28;20546;-48
2023/09/22 11:35:41;;;;;;;1.63;1.50;;;18.40;99.90;;;;;;5214437;28;20508;-49
2023/09/22 11:38:26;;;;;;;4.27;1.70;;;18.20;99.90;;;;;;5217532;28;20456;-48
2023/09/22 11:41:07;;;;;;;1.97;1.87;;;18.10;99.90;;;;;;5217414;28;20803;-48
2023/09/22 11:43:46;;;;;;;2.50;2.30;;;18.20;99.90;;;;;;5218417;28;20833;-49
2023/09/22 11:46:28;;;;;;;1.47;1.47;;;18.10;99.90;;;;;;5237126;28;20449;-48
2023/09/22 11:49:05;;;;;;;1.30;1.30;;;18.30;99.90;;;;;;5218839;28;20441;-46
2023/09/22 11:51:39;;;;;;;3.37;2.13;;;18.40;99.90;;;;;;5218028;28;20430;-47
2023/09/22 11:54:12;;;;;;;2.40;2.20;;;18.60;99.90;;;;;;5216238;28;20414;-46
2023/09/22 11:56:43;;;;;;;2.03;1.90;;;18.80;99.90;;;;;;5218854;28;20807;-49
2023/09/22 11:59:15;;;;;;;3.40;2.47;;;18.90;99.90;;;;;;5217566;28;20459;-47
2023/09/22 12:01:51;;;;;;;6.33;2.40;;;18.90;99.90;;;;;;5218087;28;20440;-48
2023/09/22 12:04:22;;;;;;;1.80;1.70;;;18.80;99.90;;;;;;5217748;28;20547;-47
2023/09/22 12:06:53;;;;;;;1.63;1.50;;;18.90;99.90;;;;;;5214893;28;20787;-48
2023/09/22 12:09:24;;;;;;;5.90;1.80;;;19.10;99.90;;;;;;5215747;28;20454;-48
2023/09/22 12:11:56;;;;;;;3.23;2.20;;;19.30;99.90;;;;;;5214433;28;20430;-48
2023/09/22 12:14:26;;;;;;;3.70;2.40;;;19.40;99.90;;;;;;5219713;28;20313;-48
2023/09/22 12:16:57;;;;;;;2.20;1.90;;;19.40;99.90;;;;;;5213406;28;20536;-47
2023/09/22 12:19:28;;;;;;;1.50;1.50;;;19.50;99.90;;;;;;5217437;28;20263;-47
2023/09/22 12:21:59;;;;;;;3.77;2.80;;;19.40;99.90;;;;;;5215845;28;20213;-48
2023/09/22 12:24:29;;;;;;;6.87;3.17;;;19.60;99.90;;;;;;5217510;28;20908;-47
2023/09/22 12:27:00;;;;;;;5.30;1.87;;;19.70;99.90;;;;;;5219763;28;20511;-47
2023/09/22 12:29:31;;;;;;;1.57;1.43;;;19.70;99.90;;;;;;5215601;28;20202;-47
2023/09/22 12:32:03;;;;;;;1.23;1.23;;;19.70;99.90;;;;;;5217239;28;20176;-47
2023/09/22 12:34:33;;;;;;;1.67;1.57;;;19.70;99.90;;;;;;5219586;28;20189;-47
2023/09/22 12:37:04;;;;;;;1.20;1.20;;;19.60;99.90;;;;;;5217693;28;20825;-48
2023/09/22 12:39:36;;;;;;;1.43;1.40;;;19.60;99.90;;;;;;5216078;28;20604;-46
2023/09/22 12:42:07;;;;;;;1.73;1.63;;;19.60;99.90;;;;;;5211860;28;21012;-49
2023/09/22 12:44:38;;;;;;;2.83;1.60;;;19.50;99.90;;;;;;5210157;28;22103;-48
2023/09/22 12:47:08;;;;;;;1.53;1.20;;;19.40;99.90;;;;;;5202428;28;20207;-47
2023/09/22 12:49:39;;;;;;;2.73;1.77;;;19.20;99.90;;;;;;5198750;28;20195;-47
2023/09/22 12:52:10;;;;;;;1.73;1.53;;;19.20;99.90;;;;;;5212172;28;20198;-46
2023/09/22 12:54:41;;;;;;;6.03;1.90;;;19.10;99.90;;;;;;5212977;28;20734;-46
2023/09/22 12:57:12;;;;;;;3.40;1.50;;;19.10;99.90;;;;;;5212010;28;20569;-45
2023/09/22 12:59:42;;;;;;;2.40;1.10;;;19.10;99.90;;;;;;5212809;28;20179;-46
2023/09/22 13:02:13;;;;;;;5.00;2.30;;;18.90;99.90;;;;;;5213796;28;20179;-46
2023/09/22 13:04:45;;;;;;;1.53;1.53;;;18.90;99.90;;;;;;5213520;28;21173;-47
2023/09/22 13:07:18;;;;;;;2.10;1.03;;;19.00;99.90;;;;;;5213276;28;20437;-48
2023/09/22 13:09:52;;;;;;;2.13;2.07;;;19.00;99.90;;;;;;5216872;28;20836;-46
2023/09/22 13:12:24;;;;;;;2.40;1.67;;;18.80;99.90;;;;;;5210169;28;20950;-46